sensor_id;sensor_type;location;lat;lon;timestamp;temperature;humidity
3298;DHT22;1661;53.572;10.174;2023-02-28T00:00:10;5.40;70.30
3298;DHT22;1661;53.572;10.174;2023-02-28T00:02:37;5.40;70.40
3298;DHT22;1661;53.572;10.174;2023-02-28T00:05:06;5.40;70.60
3298;DHT22;1661;53.572;10.174;2023-02-28T00:07:36;5.40;71.00
3298;DHT22;1661;53.572;10.174;2023-02-28T00:10:05;5.40;71.30
3298;DHT22;1661;53.572;10.174;2023-02-28T00:12:32;5.40;71.10
3298;DHT22;1661;53.572;10.174;2023-02-28T00:14:59;5.40;70.60
3298;DHT22;1661;53.572;10.174;2023-02-28T00:17:27;5.40;70.20
3298;DHT22;1661;53.572;10.174;2023-02-28T00:19:57;5.40;70.00
3298;DHT22;1661;53.572;10.174;2023-02-28T00:22:33;5.40;69.70
3298;DHT22;1661;53.572;10.174;2023-02-28T00:25:02;5.40;69.80
3298;DHT22;1661;53.572;10.174;2023-02-28T00:27:30;5.30;70.90
3298;DHT22;1661;53.572;10.174;2023-02-28T00:29:57;5.30;71.10
3298;DHT22;1661;53.572;10.174;2023-02-28T00:32:23;5.30;71.10
3298;DHT22;1661;53.572;10.174;2023-02-28T00:34:52;5.30;71.10
3298;DHT22;1661;53.572;10.174;2023-02-28T00:37:18;5.30;71.20
3298;DHT22;1661;53.572;10.174;2023-02-28T00:39:45;5.30;70.90
3298;DHT22;1661;53.572;10.174;2023-02-28T00:42:13;5.30;70.30
3298;DHT22;1661;53.572;10.174;2023-02-28T00:44:40;5.10;70.50
3298;DHT22;1661;53.572;10.174;2023-02-28T00:47:07;5.00;71.30
3298;DHT22;1661;53.572;10.174;2023-02-28T00:49:34;5.00;71.90
3298;DHT22;1661;53.572;10.174;2023-02-28T00:52:02;5.00;72.20
3298;DHT22;1661;53.572;10.174;2023-02-28T00:54:29;4.90;72.50
3298;DHT22;1661;53.572;10.174;2023-02-28T00:56:56;4.90;73.20
3298;DHT22;1661;53.572;10.174;2023-02-28T00:59:23;4.90;73.30
3298;DHT22;1661;53.572;10.174;2023-02-28T01:01:50;4.90;73.60
3298;DHT22;1661;53.572;10.174;2023-02-28T01:04:16;4.90;73.50
3298;DHT22;1661;53.572;10.174;2023-02-28T01:06:44;4.80;73.40
3298;DHT22;1661;53.572;10.174;2023-02-28T01:09:12;4.80;73.30
3298;DHT22;1661;53.572;10.174;2023-02-28T01:11:39;4.80;73.40
3298;DHT22;1661;53.572;10.174;2023-02-28T01:14:08;4.70;73.40
3298;DHT22;1661;53.572;10.174;2023-02-28T01:16:41;4.70;73.40
3298;DHT22;1661;53.572;10.174;2023-02-28T01:19:13;4.70;73.50
3298;DHT22;1661;53.572;10.174;2023-02-28T01:21:40;4.60;73.60
3298;DHT22;1661;53.572;10.174;2023-02-28T01:24:07;4.60;73.60
3298;DHT22;1661;53.572;10.174;2023-02-28T01:26:43;4.60;73.60
3298;DHT22;1661;53.572;10.174;2023-02-28T01:29:10;4.50;73.40
3298;DHT22;1661;53.572;10.174;2023-02-28T01:31:37;4.50;72.90
3298;DHT22;1661;53.572;10.174;2023-02-28T01:34:04;4.40;72.80
3298;DHT22;1661;53.572;10.174;2023-02-28T01:36:31;4.30;73.00
3298;DHT22;1661;53.572;10.174;2023-02-28T01:38:58;4.30;73.40
3298;DHT22;1661;53.572;10.174;2023-02-28T01:41:30;4.30;73.90
3298;DHT22;1661;53.572;10.174;2023-02-28T01:44:55;4.20;73.90
3298;DHT22;1661;53.572;10.174;2023-02-28T01:46:54;4.20;74.80
3298;DHT22;1661;53.572;10.174;2023-02-28T01:49:21;4.20;75.10
3298;DHT22;1661;53.572;10.174;2023-02-28T01:51:49;4.20;75.00
3298;DHT22;1661;53.572;10.174;2023-02-28T01:54:19;4.20;75.10
3298;DHT22;1661;53.572;10.174;2023-02-28T01:56:49;4.20;75.20
3298;DHT22;1661;53.572;10.174;2023-02-28T01:59:27;4.20;75.20
3298;DHT22;1661;53.572;10.174;2023-02-28T02:01:54;4.20;75.30
3298;DHT22;1661;53.572;10.174;2023-02-28T02:04:23;4.10;75.20
3298;DHT22;1661;53.572;10.174;2023-02-28T02:06:52;4.10;75.10
3298;DHT22;1661;53.572;10.174;2023-02-28T02:09:19;4.10;75.30
3298;DHT22;1661;53.572;10.174;2023-02-28T02:11:46;4.10;75.30
3298;DHT22;1661;53.572;10.174;2023-02-28T02:14:36;4.10;75.50
3298;DHT22;1661;53.572;10.174;2023-02-28T02:17:14;4.00;75.50
3298;DHT22;1661;53.572;10.174;2023-02-28T02:20:07;4.00;75.40
3298;DHT22;1661;53.572;10.174;2023-02-28T02:23:01;3.90;75.60
3298;DHT22;1661;53.572;10.174;2023-02-28T02:25:35;3.80;75.80
3298;DHT22;1661;53.572;10.174;2023-02-28T02:28:37;3.80;75.60
3298;DHT22;1661;53.572;10.174;2023-02-28T02:31:52;3.80;76.00
3298;DHT22;1661;53.572;10.174;2023-02-28T02:34:38;3.70;75.90
3298;DHT22;1661;53.572;10.174;2023-02-28T02:37:24;3.60;75.60
3298;DHT22;1661;53.572;10.174;2023-02-28T02:40:02;3.50;75.60
3298;DHT22;1661;53.572;10.174;2023-02-28T02:42:37;3.50;75.80
3298;DHT22;1661;53.572;10.174;2023-02-28T02:45:08;3.40;76.00
3298;DHT22;1661;53.572;10.174;2023-02-28T02:47:37;3.40;76.10
3298;DHT22;1661;53.572;10.174;2023-02-28T02:50:12;3.30;76.30
3298;DHT22;1661;53.572;10.174;2023-02-28T02:52:47;3.30;76.50
3298;DHT22;1661;53.572;10.174;2023-02-28T02:55:15;3.20;76.50
3298;DHT22;1661;53.572;10.174;2023-02-28T02:57:47;3.20;76.40
3298;DHT22;1661;53.572;10.174;2023-02-28T03:00:17;3.10;76.90
3298;DHT22;1661;53.572;10.174;2023-02-28T03:02:47;3.10;76.90
3298;DHT22;1661;53.572;10.174;2023-02-28T03:05:19;3.00;77.00
3298;DHT22;1661;53.572;10.174;2023-02-28T03:07:46;3.00;77.30
3298;DHT22;1661;53.572;10.174;2023-02-28T03:10:36;3.00;77.30
3298;DHT22;1661;53.572;10.174;2023-02-28T03:13:23;2.90;77.70
3298;DHT22;1661;53.572;10.174;2023-02-28T03:16:06;2.90;77.80
3298;DHT22;1661;53.572;10.174;2023-02-28T03:18:44;2.90;77.80
3298;DHT22;1661;53.572;10.174;2023-02-28T03:21:22;2.80;77.80
3298;DHT22;1661;53.572;10.174;2023-02-28T03:23:58;2.80;77.90
3298;DHT22;1661;53.572;10.174;2023-02-28T03:26:29;2.80;78.10
3298;DHT22;1661;53.572;10.174;2023-02-28T03:29:03;2.70;77.90
3298;DHT22;1661;53.572;10.174;2023-02-28T03:31:35;2.70;78.00
3298;DHT22;1661;53.572;10.174;2023-02-28T03:34:08;2.60;78.10
3298;DHT22;1661;53.572;10.174;2023-02-28T03:36:38;2.60;78.30
3298;DHT22;1661;53.572;10.174;2023-02-28T03:39:11;2.60;78.30
3298;DHT22;1661;53.572;10.174;2023-02-28T03:41:42;2.50;78.40
3298;DHT22;1661;53.572;10.174;2023-02-28T03:44:15;2.50;78.50
3298;DHT22;1661;53.572;10.174;2023-02-28T03:46:49;2.50;78.60
3298;DHT22;1661;53.572;10.174;2023-02-28T03:49:21;2.40;78.40
3298;DHT22;1661;53.572;10.174;2023-02-28T03:51:53;2.40;78.40
3298;DHT22;1661;53.572;10.174;2023-02-28T03:54:33;2.40;78.80
3298;DHT22;1661;53.572;10.174;2023-02-28T03:57:05;2.30;78.80
3298;DHT22;1661;53.572;10.174;2023-02-28T03:59:45;2.30;78.90
3298;DHT22;1661;53.572;10.174;2023-02-28T04:02:14;2.30;79.10
3298;DHT22;1661;53.572;10.174;2023-02-28T04:04:41;2.20;78.90
3298;DHT22;1661;53.572;10.174;2023-02-28T04:07:15;2.20;78.90
3298;DHT22;1661;53.572;10.174;2023-02-28T04:09:45;2.20;78.80
3298;DHT22;1661;53.572;10.174;2023-02-28T04:12:19;2.10;78.90
3298;DHT22;1661;53.572;10.174;2023-02-28T04:14:48;2.10;79.00
3298;DHT22;1661;53.572;10.174;2023-02-28T04:17:15;2.10;79.00
3298;DHT22;1661;53.572;10.174;2023-02-28T04:19:45;2.00;79.20
3298;DHT22;1661;53.572;10.174;2023-02-28T04:22:11;2.00;79.30
3298;DHT22;1661;53.572;10.174;2023-02-28T04:24:44;1.90;79.30
3298;DHT22;1661;53.572;10.174;2023-02-28T04:27:10;1.90;79.40
3298;DHT22;1661;53.572;10.174;2023-02-28T04:29:37;1.90;79.50
3298;DHT22;1661;53.572;10.174;2023-02-28T04:32:04;1.90;79.50
3298;DHT22;1661;53.572;10.174;2023-02-28T04:34:32;1.80;79.60
3298;DHT22;1661;53.572;10.174;2023-02-28T04:36:58;1.80;79.80
3298;DHT22;1661;53.572;10.174;2023-02-28T04:39:26;1.80;80.00
3298;DHT22;1661;53.572;10.174;2023-02-28T04:41:54;1.80;79.80
3298;DHT22;1661;53.572;10.174;2023-02-28T04:44:21;1.80;79.80
3298;DHT22;1661;53.572;10.174;2023-02-28T04:46:49;1.70;79.60
3298;DHT22;1661;53.572;10.174;2023-02-28T04:49:18;1.70;79.40
3298;DHT22;1661;53.572;10.174;2023-02-28T04:51:45;1.70;79.30
3298;DHT22;1661;53.572;10.174;2023-02-28T04:54:12;1.60;79.20
3298;DHT22;1661;53.572;10.174;2023-02-28T04:56:41;1.60;79.60
3298;DHT22;1661;53.572;10.174;2023-02-28T04:59:09;1.60;79.70
3298;DHT22;1661;53.572;10.174;2023-02-28T05:01:36;1.50;79.60
3298;DHT22;1661;53.572;10.174;2023-02-28T05:04:04;1.50;79.50
3298;DHT22;1661;53.572;10.174;2023-02-28T05:06:33;1.50;79.70
3298;DHT22;1661;53.572;10.174;2023-02-28T05:09:00;1.50;79.80
3298;DHT22;1661;53.572;10.174;2023-02-28T05:11:29;1.40;79.80
3298;DHT22;1661;53.572;10.174;2023-02-28T05:14:00;1.40;79.80
3298;DHT22;1661;53.572;10.174;2023-02-28T05:16:28;1.40;80.00
3298;DHT22;1661;53.572;10.174;2023-02-28T05:18:58;1.40;80.00
3298;DHT22;1661;53.572;10.174;2023-02-28T05:21:27;1.30;80.00
3298;DHT22;1661;53.572;10.174;2023-02-28T05:23:56;1.30;80.10
3298;DHT22;1661;53.572;10.174;2023-02-28T05:26:23;1.30;80.10
3298;DHT22;1661;53.572;10.174;2023-02-28T05:28:53;1.30;80.10
3298;DHT22;1661;53.572;10.174;2023-02-28T05:31:20;1.30;80.40
3298;DHT22;1661;53.572;10.174;2023-02-28T05:33:48;1.20;80.20
3298;DHT22;1661;53.572;10.174;2023-02-28T05:36:15;1.20;80.20
3298;DHT22;1661;53.572;10.174;2023-02-28T05:38:42;1.20;80.20
3298;DHT22;1661;53.572;10.174;2023-02-28T05:41:09;1.10;80.20
3298;DHT22;1661;53.572;10.174;2023-02-28T05:43:37;1.10;80.10
3298;DHT22;1661;53.572;10.174;2023-02-28T05:46:05;1.10;80.40
3298;DHT22;1661;53.572;10.174;2023-02-28T05:48:32;1.10;80.40
3298;DHT22;1661;53.572;10.174;2023-02-28T05:51:00;1.10;80.40
3298;DHT22;1661;53.572;10.174;2023-02-28T05:53:28;1.10;80.60
3298;DHT22;1661;53.572;10.174;2023-02-28T05:55:58;1.00;80.40
3298;DHT22;1661;53.572;10.174;2023-02-28T05:58:25;1.00;80.80
3298;DHT22;1661;53.572;10.174;2023-02-28T06:00:56;1.00;80.80
3298;DHT22;1661;53.572;10.174;2023-02-28T06:03:23;1.00;80.90
3298;DHT22;1661;53.572;10.174;2023-02-28T06:05:50;1.00;80.90
3298;DHT22;1661;53.572;10.174;2023-02-28T06:08:18;0.90;80.80
3298;DHT22;1661;53.572;10.174;2023-02-28T06:10:45;0.90;80.80
3298;DHT22;1661;53.572;10.174;2023-02-28T06:13:12;0.90;80.90
3298;DHT22;1661;53.572;10.174;2023-02-28T06:15:41;0.90;81.00
3298;DHT22;1661;53.572;10.174;2023-02-28T06:18:08;0.80;81.10
3298;DHT22;1661;53.572;10.174;2023-02-28T06:20:35;0.80;81.00
3298;DHT22;1661;53.572;10.174;2023-02-28T06:23:02;0.80;80.90
3298;DHT22;1661;53.572;10.174;2023-02-28T06:25:30;0.80;81.20
3298;DHT22;1661;53.572;10.174;2023-02-28T06:27:57;0.80;81.30
3298;DHT22;1661;53.572;10.174;2023-02-28T06:30:24;0.80;81.40
3298;DHT22;1661;53.572;10.174;2023-02-28T06:32:53;0.80;81.40
3298;DHT22;1661;53.572;10.174;2023-02-28T06:35:20;0.80;81.20
3298;DHT22;1661;53.572;10.174;2023-02-28T06:37:47;0.80;81.30
3298;DHT22;1661;53.572;10.174;2023-02-28T06:40:14;0.80;81.20
3298;DHT22;1661;53.572;10.174;2023-02-28T06:42:43;0.80;81.30
3298;DHT22;1661;53.572;10.174;2023-02-28T06:45:12;0.80;81.40
3298;DHT22;1661;53.572;10.174;2023-02-28T06:47:40;0.80;81.50
3298;DHT22;1661;53.572;10.174;2023-02-28T06:50:12;0.80;81.70
3298;DHT22;1661;53.572;10.174;2023-02-28T06:52:39;0.70;81.70
3298;DHT22;1661;53.572;10.174;2023-02-28T06:55:07;0.80;81.90
3298;DHT22;1661;53.572;10.174;2023-02-28T06:57:35;0.70;82.00
3298;DHT22;1661;53.572;10.174;2023-02-28T07:00:08;0.80;82.30
3298;DHT22;1661;53.572;10.174;2023-02-28T07:02:36;0.80;82.50
3298;DHT22;1661;53.572;10.174;2023-02-28T07:05:03;0.90;82.40
3298;DHT22;1661;53.572;10.174;2023-02-28T07:07:30;0.90;82.40
3298;DHT22;1661;53.572;10.174;2023-02-28T07:09:57;1.00;82.50
3298;DHT22;1661;53.572;10.174;2023-02-28T07:12:24;1.00;82.60
3298;DHT22;1661;53.572;10.174;2023-02-28T07:14:53;1.10;82.60
3298;DHT22;1661;53.572;10.174;2023-02-28T07:17:22;1.10;82.50
3298;DHT22;1661;53.572;10.174;2023-02-28T07:19:49;1.10;82.60
3298;DHT22;1661;53.572;10.174;2023-02-28T07:22:16;1.20;82.50
3298;DHT22;1661;53.572;10.174;2023-02-28T07:24:43;1.30;82.50
3298;DHT22;1661;53.572;10.174;2023-02-28T07:27:09;1.40;82.50
3298;DHT22;1661;53.572;10.174;2023-02-28T07:29:36;1.50;82.40
3298;DHT22;1661;53.572;10.174;2023-02-28T07:32:04;1.70;82.30
3298;DHT22;1661;53.572;10.174;2023-02-28T07:34:35;1.80;81.90
3298;DHT22;1661;53.572;10.174;2023-02-28T07:37:02;2.00;81.40
3298;DHT22;1661;53.572;10.174;2023-02-28T07:39:29;2.20;80.90
3298;DHT22;1661;53.572;10.174;2023-02-28T07:41:56;2.30;80.40
3298;DHT22;1661;53.572;10.174;2023-02-28T07:44:22;2.40;79.90
3298;DHT22;1661;53.572;10.174;2023-02-28T07:46:49;2.50;79.60
3298;DHT22;1661;53.572;10.174;2023-02-28T07:49:16;2.60;79.20
3298;DHT22;1661;53.572;10.174;2023-02-28T07:51:44;2.70;78.80
3298;DHT22;1661;53.572;10.174;2023-02-28T07:54:11;2.80;78.20
3298;DHT22;1661;53.572;10.174;2023-02-28T07:56:37;2.90;77.60
3298;DHT22;1661;53.572;10.174;2023-02-28T07:59:04;3.00;77.30
3298;DHT22;1661;53.572;10.174;2023-02-28T08:01:31;3.10;77.10
3298;DHT22;1661;53.572;10.174;2023-02-28T08:03:58;3.20;76.70
3298;DHT22;1661;53.572;10.174;2023-02-28T08:06:25;3.20;76.30
3298;DHT22;1661;53.572;10.174;2023-02-28T08:08:54;3.30;76.10
3298;DHT22;1661;53.572;10.174;2023-02-28T08:11:21;3.40;75.90
3298;DHT22;1661;53.572;10.174;2023-02-28T08:13:48;3.50;75.80
3298;DHT22;1661;53.572;10.174;2023-02-28T08:16:16;3.70;75.20
3298;DHT22;1661;53.572;10.174;2023-02-28T08:18:48;3.80;74.90
3298;DHT22;1661;53.572;10.174;2023-02-28T08:21:15;4.00;75.00
3298;DHT22;1661;53.572;10.174;2023-02-28T08:23:41;4.20;74.60
3298;DHT22;1661;53.572;10.174;2023-02-28T08:26:09;4.40;74.00
3298;DHT22;1661;53.572;10.174;2023-02-28T08:28:36;4.70;72.10
3298;DHT22;1661;53.572;10.174;2023-02-28T08:31:09;4.90;72.20
3298;DHT22;1661;53.572;10.174;2023-02-28T08:33:37;5.10;71.80
3298;DHT22;1661;53.572;10.174;2023-02-28T08:36:07;5.40;71.30
3298;DHT22;1661;53.572;10.174;2023-02-28T08:38:34;5.60;70.80
3298;DHT22;1661;53.572;10.174;2023-02-28T08:41:07;5.80;69.60
3298;DHT22;1661;53.572;10.174;2023-02-28T08:43:41;6.10;68.10
3298;DHT22;1661;53.572;10.174;2023-02-28T08:46:10;6.30;68.60
3298;DHT22;1661;53.572;10.174;2023-02-28T08:48:38;6.50;67.50
3298;DHT22;1661;53.572;10.174;2023-02-28T08:51:08;6.70;66.80
3298;DHT22;1661;53.572;10.174;2023-02-28T08:53:36;7.00;65.90
3298;DHT22;1661;53.572;10.174;2023-02-28T08:56:05;7.20;64.10
3298;DHT22;1661;53.572;10.174;2023-02-28T08:58:32;7.40;63.50
3298;DHT22;1661;53.572;10.174;2023-02-28T09:01:07;7.60;62.60
3298;DHT22;1661;53.572;10.174;2023-02-28T09:03:37;7.80;62.40
3298;DHT22;1661;53.572;10.174;2023-02-28T09:06:07;8.00;62.10
3298;DHT22;1661;53.572;10.174;2023-02-28T09:08:35;8.20;60.30
3298;DHT22;1661;53.572;10.174;2023-02-28T09:11:02;8.30;59.20
3298;DHT22;1661;53.572;10.174;2023-02-28T09:13:30;8.50;59.30
3298;DHT22;1661;53.572;10.174;2023-02-28T09:15:58;8.60;57.90
3298;DHT22;1661;53.572;10.174;2023-02-28T09:18:29;8.80;58.00
3298;DHT22;1661;53.572;10.174;2023-02-28T09:20:56;9.10;57.90
3298;DHT22;1661;53.572;10.174;2023-02-28T09:23:24;9.20;56.70
3298;DHT22;1661;53.572;10.174;2023-02-28T09:25:52;9.40;54.60
3298;DHT22;1661;53.572;10.174;2023-02-28T09:28:20;9.50;53.30
3298;DHT22;1661;53.572;10.174;2023-02-28T09:30:49;9.50;52.50
3298;DHT22;1661;53.572;10.174;2023-02-28T09:33:16;9.60;52.30
3298;DHT22;1661;53.572;10.174;2023-02-28T09:35:48;9.80;51.20
3298;DHT22;1661;53.572;10.174;2023-02-28T09:38:15;9.90;51.30
3298;DHT22;1661;53.572;10.174;2023-02-28T09:40:50;10.00;50.80
3298;DHT22;1661;53.572;10.174;2023-02-28T09:43:22;10.10;50.50
3298;DHT22;1661;53.572;10.174;2023-02-28T09:45:54;10.30;51.00
3298;DHT22;1661;53.572;10.174;2023-02-28T09:48:27;10.50;51.00
3298;DHT22;1661;53.572;10.174;2023-02-28T09:51:12;10.70;48.10
3298;DHT22;1661;53.572;10.174;2023-02-28T09:53:42;10.80;47.00
3298;DHT22;1661;53.572;10.174;2023-02-28T09:56:10;11.00;48.40
3298;DHT22;1661;53.572;10.174;2023-02-28T09:58:41;11.10;47.40
3298;DHT22;1661;53.572;10.174;2023-02-28T10:01:18;11.20;45.70
3298;DHT22;1661;53.572;10.174;2023-02-28T10:03:50;11.30;45.40
3298;DHT22;1661;53.572;10.174;2023-02-28T10:06:28;11.40;44.80
3298;DHT22;1661;53.572;10.174;2023-02-28T10:09:02;11.00;44.10
3298;DHT22;1661;53.572;10.174;2023-02-28T10:11:32;10.80;44.40
3298;DHT22;1661;53.572;10.174;2023-02-28T10:14:02;10.80;43.90
3298;DHT22;1661;53.572;10.174;2023-02-28T10:16:35;10.50;49.20
3298;DHT22;1661;53.572;10.174;2023-02-28T10:19:05;10.80;48.50
3298;DHT22;1661;53.572;10.174;2023-02-28T10:21:39;11.00;46.00
3298;DHT22;1661;53.572;10.174;2023-02-28T10:24:20;11.30;45.30
3298;DHT22;1661;53.572;10.174;2023-02-28T10:26:59;11.60;45.00
3298;DHT22;1661;53.572;10.174;2023-02-28T10:29:26;11.60;44.90
3298;DHT22;1661;53.572;10.174;2023-02-28T10:31:55;11.90;45.60
3298;DHT22;1661;53.572;10.174;2023-02-28T10:34:22;12.10;44.70
3298;DHT22;1661;53.572;10.174;2023-02-28T10:36:52;12.30;45.10
3298;DHT22;1661;53.572;10.174;2023-02-28T10:39:40;12.20;44.10
3298;DHT22;1661;53.572;10.174;2023-02-28T10:42:20;12.20;45.20
3298;DHT22;1661;53.572;10.174;2023-02-28T10:45:05;12.30;44.80
3298;DHT22;1661;53.572;10.174;2023-02-28T10:47:33;12.50;45.30
3298;DHT22;1661;53.572;10.174;2023-02-28T10:50:02;12.60;43.30
3298;DHT22;1661;53.572;10.174;2023-02-28T10:52:37;12.80;44.90
3298;DHT22;1661;53.572;10.174;2023-02-28T10:55:18;13.00;44.30
3298;DHT22;1661;53.572;10.174;2023-02-28T10:57:47;13.20;43.60
3298;DHT22;1661;53.572;10.174;2023-02-28T11:00:15;13.40;42.00
3298;DHT22;1661;53.572;10.174;2023-02-28T11:02:42;13.50;41.10
3298;DHT22;1661;53.572;10.174;2023-02-28T11:05:27;13.40;41.00
3298;DHT22;1661;53.572;10.174;2023-02-28T11:08:04;13.30;41.80
3298;DHT22;1661;53.572;10.174;2023-02-28T11:10:38;13.50;44.00
3298;DHT22;1661;53.572;10.174;2023-02-28T11:13:05;13.70;41.60
3298;DHT22;1661;53.572;10.174;2023-02-28T11:15:33;13.90;40.70
3298;DHT22;1661;53.572;10.174;2023-02-28T11:18:02;13.50;40.20
3298;DHT22;1661;53.572;10.174;2023-02-28T11:20:34;13.60;41.00
3298;DHT22;1661;53.572;10.174;2023-02-28T11:23:13;13.70;43.30
3298;DHT22;1661;53.572;10.174;2023-02-28T11:25:47;13.10;40.70
3298;DHT22;1661;53.572;10.174;2023-02-28T11:28:29;12.80;39.80
3298;DHT22;1661;53.572;10.174;2023-02-28T11:31:04;11.60;41.30
3298;DHT22;1661;53.572;10.174;2023-02-28T11:33:42;11.70;46.20
3298;DHT22;1661;53.572;10.174;2023-02-28T11:36:13;12.00;43.60
3298;DHT22;1661;53.572;10.174;2023-02-28T11:38:42;11.90;49.30
3298;DHT22;1661;53.572;10.174;2023-02-28T11:41:23;12.30;49.00
3298;DHT22;1661;53.572;10.174;2023-02-28T11:44:06;12.60;46.40
3298;DHT22;1661;53.572;10.174;2023-02-28T11:46:40;13.10;44.00
3298;DHT22;1661;53.572;10.174;2023-02-28T11:49:18;13.40;42.00
3298;DHT22;1661;53.572;10.174;2023-02-28T11:51:49;13.60;41.10
3298;DHT22;1661;53.572;10.174;2023-02-28T11:54:30;13.90;43.40
3298;DHT22;1661;53.572;10.174;2023-02-28T11:57:03;13.80;36.90
3298;DHT22;1661;53.572;10.174;2023-02-28T11:59:45;13.80;41.70
3298;DHT22;1661;53.572;10.174;2023-02-28T12:02:25;14.10;42.30
3298;DHT22;1661;53.572;10.174;2023-02-28T12:07:50;14.60;45.30
3298;DHT22;1661;53.572;10.174;2023-02-28T12:10:26;14.80;39.60
3298;DHT22;1661;53.572;10.174;2023-02-28T12:13:12;14.90;36.20
3298;DHT22;1661;53.572;10.174;2023-02-28T12:15:57;15.00;38.40
3298;DHT22;1661;53.572;10.174;2023-02-28T12:18:47;15.10;35.30
3298;DHT22;1661;53.572;10.174;2023-02-28T12:21:25;15.30;37.10
3298;DHT22;1661;53.572;10.174;2023-02-28T12:24:04;15.50;38.50
3298;DHT22;1661;53.572;10.174;2023-02-28T12:26:40;15.60;41.10
3298;DHT22;1661;53.572;10.174;2023-02-28T12:29:14;15.40;33.40
3298;DHT22;1661;53.572;10.174;2023-02-28T12:31:46;15.30;35.20
3298;DHT22;1661;53.572;10.174;2023-02-28T12:34:19;15.40;41.40
3298;DHT22;1661;53.572;10.174;2023-02-28T12:36:48;15.60;40.80
3298;DHT22;1661;53.572;10.174;2023-02-28T12:39:20;15.70;36.20
3298;DHT22;1661;53.572;10.174;2023-02-28T12:41:54;15.60;43.10
3298;DHT22;1661;53.572;10.174;2023-02-28T12:44:26;15.70;51.80
3298;DHT22;1661;53.572;10.174;2023-02-28T12:47:04;15.50;37.60
3298;DHT22;1661;53.572;10.174;2023-02-28T12:49:39;14.70;40.60
3298;DHT22;1661;53.572;10.174;2023-02-28T12:52:12;14.00;34.80
3298;DHT22;1661;53.572;10.174;2023-02-28T12:54:46;13.30;44.00
3298;DHT22;1661;53.572;10.174;2023-02-28T12:57:22;13.60;41.10
3298;DHT22;1661;53.572;10.174;2023-02-28T12:59:55;13.90;38.60
3298;DHT22;1661;53.572;10.174;2023-02-28T13:02:56;14.10;39.10
3298;DHT22;1661;53.572;10.174;2023-02-28T13:05:41;14.60;38.90
3298;DHT22;1661;53.572;10.174;2023-02-28T13:08:28;15.00;37.10
3298;DHT22;1661;53.572;10.174;2023-02-28T13:11:01;15.40;35.80
3298;DHT22;1661;53.572;10.174;2023-02-28T13:13:31;15.30;37.00
3298;DHT22;1661;53.572;10.174;2023-02-28T13:16:00;15.50;37.00
3298;DHT22;1661;53.572;10.174;2023-02-28T13:18:31;15.70;34.10
3298;DHT22;1661;53.572;10.174;2023-02-28T13:20:58;15.80;35.90
3298;DHT22;1661;53.572;10.174;2023-02-28T13:23:56;15.90;35.30
3298;DHT22;1661;53.572;10.174;2023-02-28T13:29:32;16.30;35.40
3298;DHT22;1661;53.572;10.174;2023-02-28T13:35:36;16.60;34.80
3298;DHT22;1661;53.572;10.174;2023-02-28T13:44:18;16.50;34.90
3298;DHT22;1661;53.572;10.174;2023-02-28T13:47:24;16.60;34.80
3298;DHT22;1661;53.572;10.174;2023-02-28T13:50:15;16.60;32.10
3298;DHT22;1661;53.572;10.174;2023-02-28T13:52:51;16.40;32.50
3298;DHT22;1661;53.572;10.174;2023-02-28T13:55:26;16.30;33.80
3298;DHT22;1661;53.572;10.174;2023-02-28T13:58:10;16.30;38.40
3298;DHT22;1661;53.572;10.174;2023-02-28T14:00:55;16.30;35.50
3298;DHT22;1661;53.572;10.174;2023-02-28T14:03:44;16.30;38.70
3298;DHT22;1661;53.572;10.174;2023-02-28T14:06:18;16.40;36.30
3298;DHT22;1661;53.572;10.174;2023-02-28T14:08:54;16.40;32.50
3298;DHT22;1661;53.572;10.174;2023-02-28T14:11:28;16.40;35.20
3298;DHT22;1661;53.572;10.174;2023-02-28T14:13:55;16.40;35.20
3298;DHT22;1661;53.572;10.174;2023-02-28T14:16:25;16.40;36.10
3298;DHT22;1661;53.572;10.174;2023-02-28T14:18:58;16.40;38.70
3298;DHT22;1661;53.572;10.174;2023-02-28T14:21:28;16.40;37.70
3298;DHT22;1661;53.572;10.174;2023-02-28T14:27:03;16.30;36.60
3298;DHT22;1661;53.572;10.174;2023-02-28T14:30:01;16.30;35.60
3298;DHT22;1661;53.572;10.174;2023-02-28T14:32:35;16.30;38.30
3298;DHT22;1661;53.572;10.174;2023-02-28T14:35:16;16.30;42.90
3298;DHT22;1661;53.572;10.174;2023-02-28T14:37:46;16.20;38.10
3298;DHT22;1661;53.572;10.174;2023-02-28T14:40:16;16.20;34.80
3298;DHT22;1661;53.572;10.174;2023-02-28T14:42:55;16.20;34.80
3298;DHT22;1661;53.572;10.174;2023-02-28T14:45:23;15.90;37.30
3298;DHT22;1661;53.572;10.174;2023-02-28T14:47:51;15.70;39.90
3298;DHT22;1661;53.572;10.174;2023-02-28T14:50:22;15.70;36.70
3298;DHT22;1661;53.572;10.174;2023-02-28T14:52:52;15.40;37.10
3298;DHT22;1661;53.572;10.174;2023-02-28T14:55:24;15.10;37.10
3298;DHT22;1661;53.572;10.174;2023-02-28T14:57:54;14.80;40.30
3298;DHT22;1661;53.572;10.174;2023-02-28T15:00:24;14.80;40.60
3298;DHT22;1661;53.572;10.174;2023-02-28T15:02:54;14.80;39.30
3298;DHT22;1661;53.572;10.174;2023-02-28T15:05:26;14.70;40.70
3298;DHT22;1661;53.572;10.174;2023-02-28T15:08:10;14.50;43.10
3298;DHT22;1661;53.572;10.174;2023-02-28T15:10:37;14.50;44.90
3298;DHT22;1661;53.572;10.174;2023-02-28T15:13:07;14.30;40.10
3298;DHT22;1661;53.572;10.174;2023-02-28T15:15:42;14.30;41.40
3298;DHT22;1661;53.572;10.174;2023-02-28T15:18:21;14.30;47.90
3298;DHT22;1661;53.572;10.174;2023-02-28T15:20:51;14.30;43.20
3298;DHT22;1661;53.572;10.174;2023-02-28T15:23:20;14.40;48.80
3298;DHT22;1661;53.572;10.174;2023-02-28T15:25:48;14.40;42.40
3298;DHT22;1661;53.572;10.174;2023-02-28T15:28:19;14.40;43.80
3298;DHT22;1661;53.572;10.174;2023-02-28T15:30:58;14.30;43.30
3298;DHT22;1661;53.572;10.174;2023-02-28T15:33:27;14.20;47.40
3298;DHT22;1661;53.572;10.174;2023-02-28T15:36:06;14.20;47.80
3298;DHT22;1661;53.572;10.174;2023-02-28T15:38:37;14.20;47.70
3298;DHT22;1661;53.572;10.174;2023-02-28T15:41:04;14.20;45.60
3298;DHT22;1661;53.572;10.174;2023-02-28T15:43:35;14.10;51.30
3298;DHT22;1661;53.572;10.174;2023-02-28T15:46:04;14.20;50.90
3298;DHT22;1661;53.572;10.174;2023-02-28T15:48:34;14.20;55.30
3298;DHT22;1661;53.572;10.174;2023-02-28T15:51:08;14.20;54.00
3298;DHT22;1661;53.572;10.174;2023-02-28T15:53:37;14.10;55.00
3298;DHT22;1661;53.572;10.174;2023-02-28T15:56:20;14.00;46.30
3298;DHT22;1661;53.572;10.174;2023-02-28T15:58:47;13.90;50.40
3298;DHT22;1661;53.572;10.174;2023-02-28T16:01:21;13.80;53.50
3298;DHT22;1661;53.572;10.174;2023-02-28T16:03:51;13.80;54.70
3298;DHT22;1661;53.572;10.174;2023-02-28T16:06:36;13.70;59.50
3298;DHT22;1661;53.572;10.174;2023-02-28T16:09:08;13.60;54.70
3298;DHT22;1661;53.572;10.174;2023-02-28T16:11:39;13.50;58.00
3298;DHT22;1661;53.572;10.174;2023-02-28T16:14:09;13.40;54.50
3298;DHT22;1661;53.572;10.174;2023-02-28T16:16:42;13.20;55.30
3298;DHT22;1661;53.572;10.174;2023-02-28T16:19:09;13.00;51.10
3298;DHT22;1661;53.572;10.174;2023-02-28T16:21:38;12.80;58.50
3298;DHT22;1661;53.572;10.174;2023-02-28T16:24:05;12.70;59.60
3298;DHT22;1661;53.572;10.174;2023-02-28T16:26:32;12.50;56.10
3298;DHT22;1661;53.572;10.174;2023-02-28T16:29:01;12.30;57.30
3298;DHT22;1661;53.572;10.174;2023-02-28T16:31:28;12.20;56.20
3298;DHT22;1661;53.572;10.174;2023-02-28T16:33:55;12.10;57.10
3298;DHT22;1661;53.572;10.174;2023-02-28T16:36:29;12.00;64.00
3298;DHT22;1661;53.572;10.174;2023-02-28T16:38:57;11.90;65.40
3298;DHT22;1661;53.572;10.174;2023-02-28T16:41:26;11.80;64.60